Time;durP1;ratioP1;P1;durP2;ratioP2;P2;SDS_P1;SDS_P2;PMS_P1;PMS_P2;Temp;Humidity;BMP_temperature;BMP_pressure;BME280_temperature;BME280_humidity;BME280_pressure;Samples;Min_cycle;Max_cycle;Signal;HPM_P1;HPM_P2
2022/07/30 00:01:20;;;;;;;;;;;;;;;25.60;78.57;96906.69;596646;238;66454;-62
2022/07/30 00:03:48;;;;;;;;;;;;;;;25.61;78.68;96910.95;596545;238;68535;-62
2022/07/30 00:06:15;;;;;;;;;;;;;;;25.60;78.66;96902.09;596576;238;66974;-62
2022/07/30 00:08:43;;;;;;;;;;;;;;;25.59;78.62;96899.69;596558;238;68621;-62
2022/07/30 00:11:10;;;;;;;;;;;;;;;25.60;78.72;96895.92;596528;238;68769;-62
2022/07/30 00:13:38;;;;;;;;;;;;;;;25.59;78.67;96900.52;596619;238;62969;-63
2022/07/30 00:16:06;;;;;;;;;;;;;;;25.59;78.68;96891.62;596587;238;66585;-63
2022/07/30 00:18:35;;;;;;;;;;;;;;;25.60;78.72;96895.92;596530;238;68583;-62
2022/07/30 00:21:03;;;;;;;;;;;;;;;25.59;78.79;96899.69;596560;238;62848;-62
2022/07/30 00:23:31;;;;;;;;;;;;;;;25.59;78.74;96895.12;596557;238;66571;-62
2022/07/30 00:25:58;;;;;;;;;;;;;;;25.59;78.76;96899.69;596636;238;68467;-62
2022/07/30 00:28:26;;;;;;;;;;;;;;;25.59;78.81;96899.69;596575;238;62802;-62
2022/07/30 00:30:53;;;;;;;;;;;;;;;25.59;78.82;96894.31;596537;238;68972;-62
2022/07/30 00:33:21;;;;;;;;;;;;;;;25.59;78.91;96891.62;596507;238;69070;-62
2022/07/30 00:35:48;;;;;;;;;;;;;;;25.58;78.91;96892.73;596582;238;65923;-62
2022/07/30 00:38:16;;;;;;;;;;;;;;;25.59;78.97;96894.31;596589;238;66342;-62
2022/07/30 00:40:45;;;;;;;;;;;;;;;25.59;78.92;96894.31;596600;238;68748;-62
2022/07/30 00:43:17;;;;;;;;;;;;;;;25.58;78.84;96898.90;596563;238;65670;-64
2022/07/30 00:45:45;;;;;;;;;;;;;;;25.58;78.81;96898.11;596372;237;70156;-64
2022/07/30 00:48:14;;;;;;;;;;;;;;;25.58;78.78;96892.73;596564;238;68685;-64
2022/07/30 00:50:41;;;;;;;;;;;;;;;25.58;78.79;96892.73;596565;238;62960;-64
2022/07/30 00:53:09;;;;;;;;;;;;;;;25.58;78.86;96892.73;596613;238;68355;-64
2022/07/30 00:55:36;;;;;;;;;;;;;;;25.58;78.92;96892.73;596831;237;68643;-64
2022/07/30 00:58:04;;;;;;;;;;;;;;;25.58;78.97;96892.73;597972;237;65049;-64
2022/07/30 01:00:32;;;;;;;;;;;;;;;25.57;78.91;96894.62;598011;237;68857;-64
2022/07/30 01:02:59;;;;;;;;;;;;;;;25.57;78.92;96891.15;598019;237;66508;-64
2022/07/30 01:05:27;;;;;;;;;;;;;;;25.57;78.90;96891.15;598047;237;62858;-64
2022/07/30 01:07:54;;;;;;;;;;;;;;;25.57;79.02;96886.56;598007;237;67375;-64
2022/07/30 01:10:22;;;;;;;;;;;;;;;25.57;78.99;96883.86;597992;237;66714;-64
2022/07/30 01:12:51;;;;;;;;;;;;;;;25.57;78.98;96880.39;597992;237;65233;-64
2022/07/30 01:15:19;;;;;;;;;;;;;;;25.57;79.02;96888.45;598029;237;68952;-63
2022/07/30 01:17:48;;;;;;;;;;;;;;;25.56;79.24;96884.95;598051;237;68995;-63
2022/07/30 01:20:17;;;;;;;;;;;;;;;25.57;79.54;96891.15;598013;237;64944;-63
2022/07/30 01:23:02;;;;;;;;;;;;;;;25.57;79.85;96885.77;597995;237;68943;-64
2022/07/30 01:25:50;;;;;;;;;;;;;;;25.56;80.05;96887.64;598010;237;66754;-63
2022/07/30 01:28:19;;;;;;;;;;;;;;;25.56;80.39;96878.77;598008;237;65233;-63
2022/07/30 01:30:47;;;;;;;;;;;;;;;25.56;80.71;96886.84;598017;237;69040;-63
2022/07/30 01:33:16;;;;;;;;;;;;;;;25.55;80.68;96883.36;598009;237;66653;-63
2022/07/30 01:35:46;;;;;;;;;;;;;;;25.54;80.60;96889.86;598033;237;65168;-62
2022/07/30 01:38:15;;;;;;;;;;;;;;;25.54;80.69;96881.00;598002;237;68680;-62
2022/07/30 01:40:44;;;;;;;;;;;;;;;25.54;80.71;96878.30;598007;237;68548;-62
2022/07/30 01:43:12;;;;;;;;;;;;;;;25.54;80.73;96875.62;598010;237;63031;-63
2022/07/30 01:45:40;;;;;;;;;;;;;;;25.54;80.66;96875.62;598019;237;66499;-65
2022/07/30 01:48:09;;;;;;;;;;;;;;;25.54;80.63;96875.62;597967;237;69040;-63
2022/07/30 01:50:38;;;;;;;;;;;;;;;25.54;80.54;96884.48;598003;237;62789;-63
2022/07/30 01:53:07;;;;;;;;;;;;;;;25.54;80.52;96878.30;597968;237;47762;-64
2022/07/30 01:55:36;;;;;;;;;;;;;;;25.53;80.54;96874.00;597957;237;68778;-63
2022/07/30 01:58:05;;;;;;;;;;;;;;;25.52;80.59;96873.22;598004;237;62866;-63
2022/07/30 02:00:35;;;;;;;;;;;;;;;25.53;80.65;96871.31;597993;237;68894;-63
2022/07/30 02:03:04;;;;;;;;;;;;;;;25.53;80.51;96871.31;598052;237;68679;-63
2022/07/30 02:05:33;;;;;;;;;;;;;;;25.51;80.57;96879.70;598063;237;65245;-64
2022/07/30 02:08:05;;;;;;;;;;;;;;;25.52;80.58;96872.42;598048;237;68651;-64
2022/07/30 02:10:41;;;;;;;;;;;;;;;25.52;80.70;96870.52;597989;237;68754;-64
2022/07/30 02:13:11;;;;;;;;;;;;;;;25.52;80.66;96869.73;590603;237;41888;-63
2022/07/30 02:15:43;;;;;;;;;;;;;;;25.52;80.68;96870.52;598055;237;69671;-63
2022/07/30 02:18:21;;;;;;;;;;;;;;;25.51;80.59;96871.63;598060;237;68994;-63
2022/07/30 02:20:51;;;;;;;;;;;;;;;25.52;80.66;96867.05;598021;237;64900;-63
2022/07/30 02:23:19;;;;;;;;;;;;;;;25.51;80.68;96866.25;597601;237;66898;-63
2022/07/30 02:25:51;;;;;;;;;;;;;;;25.52;80.73;96867.05;598007;237;68806;-63
2022/07/30 02:28:22;;;;;;;;;;;;;;;25.51;80.75;96860.05;598080;237;45375;-65
2022/07/30 02:30:51;;;;;;;;;;;;;;;25.51;80.68;96857.36;598084;237;69009;-65
2022/07/30 02:33:19;;;;;;;;;;;;;;;25.51;80.83;96854.67;598037;237;68884;-63
2022/07/30 02:35:50;;;;;;;;;;;;;;;25.50;80.82;96855.78;598010;237;44009;-64
2022/07/30 02:38:19;;;;;;;;;;;;;;;25.50;80.82;96853.09;597989;237;68636;-63
2022/07/30 02:40:47;;;;;;;;;;;;;;;25.51;80.76;96857.36;598019;237;69619;-63
2022/07/30 02:43:19;;;;;;;;;;;;;;;25.49;80.72;96862.27;598064;237;65656;-65
2022/07/30 02:45:47;;;;;;;;;;;;;;;25.50;80.77;96858.47;598046;237;66581;-65
2022/07/30 02:48:15;;;;;;;;;;;;;;;25.50;80.74;96858.47;598025;237;68602;-64
2022/07/30 02:50:43;;;;;;;;;;;;;;;25.50;80.78;96855.78;597973;237;63002;-64
2022/07/30 02:53:12;;;;;;;;;;;;;;;25.51;80.70;96862.74;598027;237;68967;-62
2022/07/30 02:55:40;;;;;;;;;;;;;;;25.49;80.76;96860.37;597685;237;68507;-62
2022/07/30 02:58:10;;;;;;;;;;;;;;;25.51;80.71;96862.74;596591;238;65083;-62
2022/07/30 03:00:38;;;;;;;;;;;;;;;25.50;80.74;96864.64;596587;238;66751;-63
2022/07/30 03:03:06;;;;;;;;;;;;;;;25.49;80.69;96860.37;596515;238;67123;-62
2022/07/30 03:05:37;;;;;;;;;;;;;;;25.50;80.63;96863.85;596577;237;43655;-62
2022/07/30 03:08:04;;;;;;;;;;;;;;;25.49;80.66;96862.27;596631;238;68826;-62
2022/07/30 03:10:33;;;;;;;;;;;;;;;25.49;80.73;96862.27;596572;238;68760;-62
2022/07/30 03:13:00;;;;;;;;;;;;;;;25.49;80.77;96867.66;596573;238;65072;-62
2022/07/30 03:15:29;;;;;;;;;;;;;;;25.49;80.86;96859.58;596575;238;68688;-62
2022/07/30 03:17:58;;;;;;;;;;;;;;;25.49;80.81;96867.66;596585;238;66469;-62
2022/07/30 03:20:27;;;;;;;;;;;;;;;25.48;80.82;96861.45;596615;238;65045;-62
2022/07/30 03:22:56;;;;;;;;;;;;;;;25.47;80.82;96868.73;596652;238;68305;-62
2022/07/30 03:25:25;;;;;;;;;;;;;;;25.47;80.78;96866.05;596603;238;66146;-62
2022/07/30 03:27:54;;;;;;;;;;;;;;;25.47;80.95;96868.73;596548;238;65089;-62
2022/07/30 03:30:22;;;;;;;;;;;;;;;25.47;80.95;96865.25;596591;238;66183;-62
2022/07/30 03:32:51;;;;;;;;;;;;;;;25.47;80.99;96874.12;596563;237;68520;-62
2022/07/30 03:35:20;;;;;;;;;;;;;;;25.47;81.01;96879.50;596644;238;62996;-62
2022/07/30 03:37:49;;;;;;;;;;;;;;;25.47;81.03;96876.02;596588;238;68486;-63
2022/07/30 03:40:17;;;;;;;;;;;;;;;25.47;81.08;96884.88;596558;238;68372;-62
2022/07/30 03:42:45;;;;;;;;;;;;;;;25.46;81.09;96885.98;596528;238;65051;-62
2022/07/30 03:45:15;;;;;;;;;;;;;;;25.46;81.15;96880.61;596582;238;68728;-63
2022/07/30 03:47:44;;;;;;;;;;;;;;;25.46;81.23;96885.98;596587;238;66673;-62
2022/07/30 03:50:13;;;;;;;;;;;;;;;25.46;81.19;96880.61;596592;238;65028;-62
2022/07/30 03:52:41;;;;;;;;;;;;;;;25.45;81.31;96884.41;596553;238;68900;-62
2022/07/30 03:55:11;;;;;;;;;;;;;;;25.45;81.36;96884.41;596517;237;45551;-62
2022/07/30 03:57:50;;;;;;;;;;;;;;;25.45;81.31;96884.41;598080;237;45026;-63
2022/07/30 04:00:20;;;;;;;;;;;;;;;25.46;81.37;96883.30;597918;237;45677;-62
2022/07/30 04:02:49;;;;;;;;;;;;;;;25.45;81.40;96894.34;598098;237;45669;-62
2022/07/30 04:05:22;;;;;;;;;;;;;;;25.45;81.44;96900.55;597630;237;42514;-62
2022/07/30 04:07:49;;;;;;;;;;;;;;;25.45;81.49;96889.78;597966;237;69621;-62
2022/07/30 04:10:18;;;;;;;;;;;;;;;25.45;81.49;96895.17;598049;237;46891;-62
2022/07/30 04:12:57;;;;;;;;;;;;;;;25.45;81.51;96897.04;588752;237;46335;-61
2022/07/30 04:15:25;;;;;;;;;;;;;;;25.45;81.50;96899.73;598000;237;68914;-62
2022/07/30 04:17:54;;;;;;;;;;;;;;;25.43;81.46;96902.73;598034;237;69167;-61
2022/07/30 04:20:26;;;;;;;;;;;;;;;25.45;81.47;96905.93;597991;237;62616;-62
2022/07/30 04:22:56;;;;;;;;;;;;;;;25.44;81.50;96898.15;597999;237;66050;-62
2022/07/30 04:25:23;;;;;;;;;;;;;;;25.43;81.53;96894.67;597993;237;66691;-62
2022/07/30 04:27:51;;;;;;;;;;;;;;;25.43;81.49;96886.59;598019;237;65124;-62
2022/07/30 04:30:19;;;;;;;;;;;;;;;25.44;81.54;96884.70;598056;237;66628;-62
2022/07/30 04:32:46;;;;;;;;;;;;;;;25.43;81.46;96883.91;597958;237;68943;-62
2022/07/30 04:35:20;;;;;;;;;;;;;;;25.44;81.45;96892.77;581955;237;46346;-63
2022/07/30 04:37:55;;;;;;;;;;;;;;;25.44;81.47;96882.01;597771;237;48205;-62
2022/07/30 04:40:23;;;;;;;;;;;;;;;25.43;81.49;96881.22;598007;237;68713;-62
2022/07/30 04:42:51;;;;;;;;;;;;;;;25.43;81.56;96877.73;597988;237;62836;-62
2022/07/30 04:45:19;;;;;;;;;;;;;;;25.43;81.57;96883.11;598007;237;69181;-62
2022/07/30 04:47:48;;;;;;;;;;;;;;;25.42;81.62;96879.61;597604;237;50983;-62
2022/07/30 04:50:35;;;;;;;;;;;;;;;25.42;81.64;96874.23;598130;237;38977;-62
2022/07/30 04:53:04;;;;;;;;;;;;;;;25.42;81.65;96873.44;597964;237;66189;-62
2022/07/30 04:55:34;;;;;;;;;;;;;;;25.42;81.68;96868.84;597696;237;49618;-62
2022/07/30 04:58:03;;;;;;;;;;;;;;;25.41;81.69;96872.64;596567;238;62970;-62
2022/07/30 05:00:33;;;;;;;;;;;;;;;25.42;81.72;96871.53;596635;238;69488;-62
2022/07/30 05:03:03;;;;;;;;;;;;;;;25.42;81.74;96874.23;596576;238;69147;-63
2022/07/30 05:05:31;;;;;;;;;;;;;;;25.42;81.72;96873.44;591232;238;66502;-63
2022/07/30 05:08:00;;;;;;;;;;;;;;;25.41;81.70;96871.86;596507;238;66756;-62
2022/07/30 05:10:29;;;;;;;;;;;;;;;25.41;81.70;96872.64;596542;237;68721;-62
2022/07/30 05:12:56;;;;;;;;;;;;;;;25.41;81.70;96869.95;596481;238;62977;-62
2022/07/30 05:15:25;;;;;;;;;;;;;;;25.42;81.66;96868.05;596467;238;69382;-62
2022/07/30 05:17:52;;;;;;;;;;;;;;;25.42;81.70;96873.44;596565;238;68758;-62
2022/07/30 05:20:20;;;;;;;;;;;;;;;25.42;81.69;96868.05;595980;238;63857;-62
2022/07/30 05:22:55;;;;;;;;;;;;;;;25.41;81.67;96872.64;595690;237;51294;-62
2022/07/30 05:25:23;;;;;;;;;;;;;;;25.41;81.73;96864.58;596592;238;65778;-62
2022/07/30 05:27:52;;;;;;;;;;;;;;;25.40;81.69;96868.37;596609;238;65688;-63
2022/07/30 05:30:20;;;;;;;;;;;;;;;25.40;81.71;96868.37;596582;238;66624;-62
2022/07/30 05:32:48;;;;;;;;;;;;;;;25.40;81.73;96873.75;596528;238;69459;-62
2022/07/30 05:35:16;;;;;;;;;;;;;;;25.40;81.72;96871.06;596369;238;65063;-62
2022/07/30 05:37:44;;;;;;;;;;;;;;;25.40;81.72;96873.75;596539;238;66652;-62
2022/07/30 05:40:13;;;;;;;;;;;;;;;25.41;81.74;96878.03;596564;237;67602;-62
2022/07/30 05:42:45;;;;;;;;;;;;;;;25.40;81.76;96871.06;595989;237;44010;-62
2022/07/30 05:45:14;;;;;;;;;;;;;;;25.41;81.81;96874.55;596548;238;69825;-62
2022/07/30 05:47:45;;;;;;;;;;;;;;;25.41;81.82;96874.55;596517;237;49695;-62
2022/07/30 05:50:13;;;;;;;;;;;;;;;25.40;81.83;96876.45;596540;238;65737;-62
2022/07/30 05:52:41;;;;;;;;;;;;;;;25.40;81.88;96867.55;596525;238;68344;-62
2022/07/30 05:55:11;;;;;;;;;;;;;;;25.40;81.92;96872.94;595891;237;49700;-62
2022/07/30 05:57:43;;;;;;;;;;;;;;;25.41;81.95;96869.16;586118;237;45322;-62
2022/07/30 06:00:12;;;;;;;;;;;;;;;25.40;81.94;96865.69;597939;237;68843;-62
2022/07/30 06:02:48;;;;;;;;;;;;;;;25.40;81.94;96871.06;597844;237;47245;-62
2022/07/30 06:05:34;;;;;;;;;;;;;;;25.40;81.89;96876.45;598090;237;41461;-62
2022/07/30 06:08:02;;;;;;;;;;;;;;;25.40;81.92;96878.31;598018;237;67412;-63
2022/07/30 06:10:30;;;;;;;;;;;;;;;25.39;81.91;96869.45;598013;237;69266;-62
2022/07/30 06:12:58;;;;;;;;;;;;;;;25.40;81.94;96871.06;597880;237;63562;-64
2022/07/30 06:15:26;;;;;;;;;;;;;;;25.38;80.53;96867.87;598020;237;66489;-64
2022/07/30 06:17:54;;;;;;;;;;;;;;;25.39;78.98;96874.05;598004;237;69197;-64
2022/07/30 06:20:29;;;;;;;;;;;;;;;25.41;79.29;96863.78;597573;237;42508;-64
2022/07/30 06:23:17;;;;;;;;;;;;;;;25.41;79.87;96861.88;570813;247;50173;-64
2022/07/30 06:25:55;;;;;;;;;;;;;;;25.41;80.78;96861.09;565809;250;49845;-64
2022/07/30 06:28:23;;;;;;;;;;;;;;;25.42;81.22;96859.98;581883;237;64278;-64
2022/07/30 06:30:51;;;;;;;;;;;;;;;25.42;81.39;96862.67;597947;237;69266;-64
2022/07/30 06:33:19;;;;;;;;;;;;;;;25.42;81.58;96851.91;597811;237;66186;-64
2022/07/30 06:35:47;;;;;;;;;;;;;;;25.41;81.67;96848.44;597931;237;65175;-64
2022/07/30 06:38:17;;;;;;;;;;;;;;;25.42;81.81;96851.91;597673;237;50152;-64
2022/07/30 06:40:58;;;;;;;;;;;;;;;25.42;81.88;96852.70;596918;237;45591;-64
2022/07/30 06:43:27;;;;;;;;;;;;;;;25.42;81.97;96847.32;596604;237;43198;-64
2022/07/30 06:46:12;;;;;;;;;;;;;;;25.42;82.03;96850.02;592088;237;42261;-64
2022/07/30 06:48:41;;;;;;;;;;;;;;;25.43;82.05;96845.45;597828;237;47622;-64
2022/07/30 06:51:09;;;;;;;;;;;;;;;25.42;82.02;96850.02;598013;237;64348;-64
2022/07/30 06:53:38;;;;;;;;;;;;;;;25.43;82.00;96848.94;598074;237;45985;-64
2022/07/30 06:56:14;;;;;;;;;;;;;;;25.42;81.99;96847.32;597993;237;49528;-64
2022/07/30 06:58:47;;;;;;;;;;;;;;;25.42;82.04;96831.19;597715;237;46489;-64
2022/07/30 07:01:22;;;;;;;;;;;;;;;25.43;81.98;96835.48;581962;237;48526;-64
2022/07/30 07:03:50;;;;;;;;;;;;;;;25.43;82.04;96830.10;590417;237;72082;-63
2022/07/30 07:06:18;;;;;;;;;;;;;;;25.43;82.05;96827.41;597933;237;63058;-63
2022/07/30 07:08:45;;;;;;;;;;;;;;;25.43;82.09;96827.41;597905;237;68556;-63
2022/07/30 07:11:15;;;;;;;;;;;;;;;25.43;82.19;96827.41;598016;237;50306;-65
2022/07/30 07:13:47;;;;;;;;;;;;;;;25.44;82.18;96834.38;597498;237;45256;-65
2022/07/30 07:16:24;;;;;;;;;;;;;;;25.45;82.24;96830.59;597737;237;46227;-64
2022/07/30 07:18:47;;;;;;;;;;;;;;;25.45;82.24;96827.91;597508;237;67250;-64
2022/07/30 07:21:15;;;;;;;;;;;;;;;25.46;82.18;96826.01;597891;237;65101;-64
2022/07/30 07:23:43;;;;;;;;;;;;;;;25.45;82.23;96825.22;598019;237;69513;-63
2022/07/30 07:26:15;;;;;;;;;;;;;;;25.45;82.25;96830.59;581918;237;48478;-64
2022/07/30 07:28:44;;;;;;;;;;;;;;;25.46;82.20;96826.01;598044;237;66163;-65
2022/07/30 07:31:11;;;;;;;;;;;;;;;25.46;82.22;96829.48;598059;237;68207;-65
2022/07/30 07:33:39;;;;;;;;;;;;;;;25.46;82.21;96821.42;598045;237;68277;-64
2022/07/30 07:36:07;;;;;;;;;;;;;;;25.46;82.23;96823.31;598013;237;65751;-62
2022/07/30 07:38:35;;;;;;;;;;;;;;;25.46;82.25;96823.31;598023;237;68514;-62
2022/07/30 07:41:04;;;;;;;;;;;;;;;25.47;82.29;96819.52;598000;237;68366;-62
2022/07/30 07:43:33;;;;;;;;;;;;;;;25.46;82.16;96826.80;598041;237;65174;-64
2022/07/30 07:46:01;;;;;;;;;;;;;;;25.45;82.20;96825.22;598016;237;66365;-62
2022/07/30 07:48:30;;;;;;;;;;;;;;;25.46;82.18;96821.42;598062;237;47420;-62
2022/07/30 07:51:08;;;;;;;;;;;;;;;25.47;82.22;96823.00;597515;237;43689;-61
2022/07/30 07:53:36;;;;;;;;;;;;;;;25.46;82.30;96824.11;597995;237;69208;-61
2022/07/30 07:56:07;;;;;;;;;;;;;;;25.47;82.31;96823.00;597405;237;68481;-61
2022/07/30 07:58:34;;;;;;;;;;;;;;;25.46;82.21;96816.03;596574;238;65928;-61
2022/07/30 08:01:03;;;;;;;;;;;;;;;25.46;82.16;96821.42;596576;237;50154;-61
2022/07/30 08:03:49;;;;;;;;;;;;;;;25.47;82.29;96806.06;596648;238;39683;-63
2022/07/30 08:06:21;;;;;;;;;;;;;;;25.47;82.30;96814.14;595891;238;42394;-61
2022/07/30 08:09:03;;;;;;;;;;;;;;;25.46;82.26;96816.03;579442;237;48506;-62
2022/07/30 08:11:39;;;;;;;;;;;;;;;25.47;82.32;96809.55;592195;238;49926;-62
2022/07/30 08:14:24;;;;;;;;;;;;;;;25.46;82.34;96810.66;596659;238;39911;-62
2022/07/30 08:17:03;;;;;;;;;;;;;;;25.47;82.31;96812.23;571083;247;50922;-62
2022/07/30 08:19:48;;;;;;;;;;;;;;;25.48;82.27;96813.02;596629;238;40437;-62
2022/07/30 08:22:18;;;;;;;;;;;;;;;25.47;82.32;96806.86;596565;238;65147;-62
2022/07/30 08:24:45;;;;;;;;;;;;;;;25.47;82.27;96806.06;596625;238;66294;-62
2022/07/30 08:27:13;;;;;;;;;;;;;;;25.47;82.30;96803.38;596558;238;68444;-62
2022/07/30 08:29:41;;;;;;;;;;;;;;;25.47;82.21;96806.06;596541;238;63811;-62
2022/07/30 08:32:08;;;;;;;;;;;;;;;25.46;82.26;96805.28;596533;238;69005;-62
2022/07/30 08:34:37;;;;;;;;;;;;;;;25.49;82.24;96803.08;596492;238;69096;-62
2022/07/30 08:37:07;;;;;;;;;;;;;;;25.47;82.22;96806.86;596523;238;66041;-62
2022/07/30 08:39:35;;;;;;;;;;;;;;;25.47;82.24;96796.09;596561;238;69295;-63
2022/07/30 08:42:04;;;;;;;;;;;;;;;25.49;82.20;96797.70;596562;238;68545;-62
2022/07/30 08:44:32;;;;;;;;;;;;;;;25.48;82.20;96786.13;596559;238;62976;-62
2022/07/30 08:47:02;;;;;;;;;;;;;;;25.50;82.14;96793.90;596589;238;69005;-62
2022/07/30 08:49:31;;;;;;;;;;;;;;;25.49;82.07;96797.70;588992;238;50072;-63
2022/07/30 08:51:59;;;;;;;;;;;;;;;25.49;82.05;96792.32;596541;238;65349;-62
2022/07/30 08:54:41;;;;;;;;;;;;;;;25.49;82.05;96792.32;596499;238;45871;-62
2022/07/30 08:57:08;;;;;;;;;;;;;;;25.49;82.14;96795.02;596485;237;68549;-62
2022/07/30 08:59:38;;;;;;;;;;;;;;;25.50;82.19;96792.00;596585;238;65182;-64
2022/07/30 09:02:05;;;;;;;;;;;;;;;25.48;82.21;96794.19;596552;238;68964;-64
2022/07/30 09:04:35;;;;;;;;;;;;;;;25.49;82.20;96785.04;596600;237;44911;-62
2022/07/30 09:07:04;;;;;;;;;;;;;;;25.49;82.20;96789.63;596569;238;63129;-62
2022/07/30 09:09:31;;;;;;;;;;;;;;;25.50;82.14;96789.30;596549;238;66666;-62
2022/07/30 09:12:02;;;;;;;;;;;;;;;25.48;82.07;96786.13;596558;238;66398;-64
2022/07/30 09:14:29;;;;;;;;;;;;;;;25.50;82.05;96788.52;596540;238;63039;-64
2022/07/30 09:16:57;;;;;;;;;;;;;;;25.50;82.04;96780.45;596598;237;68909;-64
2022/07/30 09:19:25;;;;;;;;;;;;;;;25.50;82.01;96772.38;596544;238;68906;-64
2022/07/30 09:21:59;;;;;;;;;;;;;;;25.50;82.06;96767.00;596557;238;65088;-64
2022/07/30 09:24:37;;;;;;;;;;;;;;;25.50;82.13;96764.30;595491;238;48506;-64
2022/07/30 09:27:22;;;;;;;;;;;;;;;25.49;82.00;96762.73;596657;238;42366;-65
2022/07/30 09:29:58;;;;;;;;;;;;;;;25.49;82.05;96760.83;596647;237;45074;-65
2022/07/30 09:32:54;;;;;;;;;;;;;;;25.50;81.98;96750.85;596616;238;44848;-65
2022/07/30 09:35:43;;;;;;;;;;;;;;;25.49;81.99;96738.52;596648;238;40417;-64
2022/07/30 09:38:12;;;;;;;;;;;;;;;25.49;82.06;96750.06;596693;237;47725;-63
2022/07/30 09:40:51;;;;;;;;;;;;;;;25.49;81.97;96738.52;596625;237;51705;-63
2022/07/30 09:43:46;;;;;;;;;;;;;;;25.49;82.09;96738.52;587267;237;50810;-63
2022/07/30 09:46:16;;;;;;;;;;;;;;;25.49;82.03;96746.58;596341;237;43590;-63
2022/07/30 09:48:45;;;;;;;;;;;;;;;25.49;82.03;96743.89;596580;238;69054;-63
2022/07/30 09:51:13;;;;;;;;;;;;;;;25.48;81.91;96745.77;596403;238;66676;-63
2022/07/30 09:53:59;;;;;;;;;;;;;;;25.49;82.00;96738.52;596506;238;65128;-64
2022/07/30 09:56:29;;;;;;;;;;;;;;;25.49;82.04;96733.92;597343;237;68750;-63
2022/07/30 09:58:57;;;;;;;;;;;;;;;25.49;82.03;96727.75;598007;237;67666;-64
2022/07/30 10:01:25;;;;;;;;;;;;;;;25.49;82.08;96730.44;597854;237;65065;-63
2022/07/30 10:03:55;;;;;;;;;;;;;;;25.50;81.93;96734.71;597835;237;49579;-63
2022/07/30 10:06:35;;;;;;;;;;;;;;;25.49;81.83;96727.75;598079;237;50755;-65
2022/07/30 10:09:04;;;;;;;;;;;;;;;25.51;82.06;96728.22;597856;237;46261;-63
2022/07/30 10:11:32;;;;;;;;;;;;;;;25.49;81.95;96717.78;598032;237;68826;-64
2022/07/30 10:14:00;;;;;;;;;;;;;;;25.50;81.95;96718.56;598000;237;68733;-64
2022/07/30 10:16:29;;;;;;;;;;;;;;;25.50;81.96;96711.28;597941;237;62998;-63
2022/07/30 10:19:00;;;;;;;;;;;;;;;25.49;81.87;96707.02;598005;237;66675;-63
2022/07/30 10:21:46;;;;;;;;;;;;;;;25.50;81.93;96710.50;598119;237;43673;-63
2022/07/30 10:24:18;;;;;;;;;;;;;;;25.50;81.67;96707.80;581930;237;46357;-63
2022/07/30 10:26:54;;;;;;;;;;;;;;;25.50;81.80;96703.22;598131;237;50901;-63
2022/07/30 10:29:39;;;;;;;;;;;;;;;25.50;81.84;96705.11;598138;237;42928;-63
2022/07/30 10:32:07;;;;;;;;;;;;;;;25.50;81.85;96699.73;598014;237;65076;-63
2022/07/30 10:34:34;;;;;;;;;;;;;;;25.50;81.73;96697.83;598031;237;68872;-63
2022/07/30 10:37:03;;;;;;;;;;;;;;;25.50;81.58;96697.05;597995;237;68991;-64
2022/07/30 10:39:33;;;;;;;;;;;;;;;25.50;81.81;96697.83;597987;237;66305;-63
2022/07/30 10:42:14;;;;;;;;;;;;;;;25.50;81.73;96694.35;597967;237;69029;-63
2022/07/30 10:44:59;;;;;;;;;;;;;;;25.50;81.73;96683.59;598010;237;69589;-63
2022/07/30 10:47:28;;;;;;;;;;;;;;;25.51;81.58;96685.17;598015;237;63124;-61
2022/07/30 10:50:13;;;;;;;;;;;;;;;25.51;81.69;96687.86;598020;237;69571;-61
2022/07/30 10:52:44;;;;;;;;;;;;;;;25.50;81.60;96684.38;597993;237;66867;-63
2022/07/30 10:55:13;;;;;;;;;;;;;;;25.52;81.75;96686.77;597989;237;65092;-63
2022/07/30 10:57:59;;;;;;;;;;;;;;;25.51;81.80;96682.48;598080;237;68367;-61
2022/07/30 11:00:26;;;;;;;;;;;;;;;25.51;81.81;96685.17;598071;237;68702;-61
2022/07/30 11:03:14;;;;;;;;;;;;;;;25.51;81.75;96687.86;597996;237;62860;-62
2022/07/30 11:05:42;;;;;;;;;;;;;;;25.51;81.77;96679.78;598004;237;68973;-61
2022/07/30 11:08:28;;;;;;;;;;;;;;;25.52;81.63;96684.87;598019;237;66426;-63
2022/07/30 11:10:56;;;;;;;;;;;;;;;25.51;81.65;96675.23;598017;237;63225;-64
2022/07/30 11:13:41;;;;;;;;;;;;;;;25.51;81.50;96677.09;598040;237;68608;-63
2022/07/30 11:16:09;;;;;;;;;;;;;;;25.52;81.44;96676.02;597985;237;66609;-63
2022/07/30 11:18:38;;;;;;;;;;;;;;;25.51;81.44;96669.84;598078;237;63124;-63
2022/07/30 11:21:19;;;;;;;;;;;;;;;25.51;81.53;96677.09;597024;237;68674;-63
2022/07/30 11:23:46;;;;;;;;;;;;;;;25.52;81.37;96673.33;597801;237;68740;-64
2022/07/30 11:26:32;;;;;;;;;;;;;;;25.52;81.58;96673.33;598028;237;64893;-63
2022/07/30 11:28:59;;;;;;;;;;;;;;;25.52;81.53;96670.63;597963;237;66441;-65
2022/07/30 11:31:28;;;;;;;;;;;;;;;25.52;81.49;96665.25;597998;237;66684;-63
2022/07/30 11:34:13;;;;;;;;;;;;;;;25.52;81.42;96659.88;598067;237;65176;-63
2022/07/30 11:36:41;;;;;;;;;;;;;;;25.52;81.52;96657.18;583153;242;66727;-63
2022/07/30 11:39:09;;;;;;;;;;;;;;;25.52;81.66;96646.42;593906;237;68545;-64
2022/07/30 11:41:37;;;;;;;;;;;;;;;25.52;81.38;96641.83;598017;237;65071;-64
2022/07/30 11:44:22;;;;;;;;;;;;;;;25.51;81.49;96640.25;597997;237;66578;-64
2022/07/30 11:46:49;;;;;;;;;;;;;;;25.53;81.48;96638.02;598053;237;68026;-64
2022/07/30 11:49:18;;;;;;;;;;;;;;;25.52;81.49;96630.27;598089;237;65141;-64
2022/07/30 11:51:47;;;;;;;;;;;;;;;25.52;81.43;96624.89;598027;237;68353;-64
2022/07/30 11:54:16;;;;;;;;;;;;;;;25.52;81.48;96616.83;597962;237;68810;-64
2022/07/30 11:56:50;;;;;;;;;;;;;;;25.52;81.33;96614.92;598015;237;65032;-64
2022/07/30 11:59:18;;;;;;;;;;;;;;;25.54;81.50;96620.00;598030;237;68292;-63
2022/07/30 12:01:46;;;;;;;;;;;;;;;25.53;81.34;96610.33;598088;237;68279;-63
2022/07/30 12:04:14;;;;;;;;;;;;;;;25.54;81.55;96609.24;598036;237;65135;-64
2022/07/30 12:06:45;;;;;;;;;;;;;;;25.53;81.74;96616.50;597995;237;68203;-64
2022/07/30 12:09:14;;;;;;;;;;;;;;;25.54;81.67;96611.94;598011;237;68761;-63
2022/07/30 12:11:42;;;;;;;;;;;;;;;25.54;81.63;96609.24;597760;237;63065;-63
2022/07/30 12:14:10;;;;;;;;;;;;;;;25.54;81.43;96606.55;598034;237;66146;-64
2022/07/30 12:16:39;;;;;;;;;;;;;;;25.54;81.75;96604.65;598031;237;68499;-64
2022/07/30 12:19:07;;;;;;;;;;;;;;;25.55;81.38;96605.44;598002;237;63912;-64
2022/07/30 12:21:34;;;;;;;;;;;;;;;25.54;81.62;96601.95;597986;237;68752;-65
2022/07/30 12:24:06;;;;;;;;;;;;;;;25.54;81.53;96601.95;598038;237;68656;-63
2022/07/30 12:26:33;;;;;;;;;;;;;;;25.55;81.52;96589.30;598017;237;62941;-63
2022/07/30 12:29:02;;;;;;;;;;;;;;;25.55;81.28;96591.98;598015;237;66508;-63
2022/07/30 12:31:29;;;;;;;;;;;;;;;25.55;80.98;96587.39;598015;237;68640;-63
2022/07/30 12:33:59;;;;;;;;;;;;;;;25.55;81.15;96594.67;598017;237;65145;-63
2022/07/30 12:36:30;;;;;;;;;;;;;;;25.55;81.46;96592.77;598027;237;66543;-63
2022/07/30 12:38:59;;;;;;;;;;;;;;;25.55;81.19;96582.02;598027;237;68721;-63
2022/07/30 12:41:43;;;;;;;;;;;;;;;25.56;81.23;96577.41;598017;237;63694;-63
2022/07/30 12:44:31;;;;;;;;;;;;;;;25.55;81.29;96576.63;598060;237;48357;-63
2022/07/30 12:46:58;;;;;;;;;;;;;;;25.55;81.29;96570.46;598034;237;66513;-63
2022/07/30 12:49:30;;;;;;;;;;;;;;;25.55;81.41;96562.39;598045;237;62962;-63
2022/07/30 12:51:57;;;;;;;;;;;;;;;25.55;81.36;96562.39;598003;237;68868;-63
2022/07/30 12:54:25;;;;;;;;;;;;;;;25.54;81.13;96555.44;598001;237;68669;-63
2022/07/30 12:56:57;;;;;;;;;;;;;;;25.54;81.31;96550.05;597966;237;65090;-63
2022/07/30 12:59:25;;;;;;;;;;;;;;;25.55;81.55;96548.94;598047;237;68572;-63
2022/07/30 13:01:52;;;;;;;;;;;;;;;25.54;81.36;96545.45;598042;237;68488;-63
2022/07/30 13:04:20;;;;;;;;;;;;;;;25.55;81.32;96543.55;597986;237;64897;-63
2022/07/30 13:07:04;;;;;;;;;;;;;;;25.55;81.21;96538.17;598015;237;66605;-63